Time;durP1;ratioP1;P1;durP2;ratioP2;P2;SDS_P1;SDS_P2;PMS_P1;PMS_P2;Temp;Humidity;BMP_temperature;BMP_pressure;BME280_temperature;BME280_humidity;BME280_pressure;Samples;Min_cycle;Max_cycle;Signal;HPM_P1;HPM_P2
2022/01/20 00:03:23;;;;;;;10.65;2.20;;;5.60;81.60;;;;;;6096050;23;95251;-66
2022/01/20 00:27:50;;;;;;;10.93;1.92;;;5.40;83.40;;;;;;6094520;23;94687;-66
2022/01/20 00:33:18;;;;;;;10.30;1.75;;;5.60;83.60;;;;;;6095337;23;92906;-66
2022/01/20 00:38:24;;;;;;;8.32;1.48;;;5.60;84.30;;;;;;6095864;23;92727;-66
2022/01/20 00:40:54;;;;;;;8.10;1.10;;;5.60;83.60;;;;;;6095644;23;92362;-66
2022/01/20 00:43:21;;;;;;;6.97;2.13;;;5.50;83.70;;;;;;6095142;23;93142;-66
2022/01/20 00:45:48;;;;;;;10.02;1.60;;;5.50;83.90;;;;;;6093802;23;93987;-66
2022/01/20 00:48:18;;;;;;;7.95;1.60;;;5.50;84.30;;;;;;6095706;23;92320;-66
2022/01/20 00:50:45;;;;;;;11.45;1.98;;;5.50;84.30;;;;;;6093624;23;92777;-65
2022/01/20 00:53:12;;;;;;;10.15;1.48;;;5.40;84.30;;;;;;6093654;23;95314;-66
2022/01/20 00:55:39;;;;;;;9.93;1.80;;;5.40;84.30;;;;;;6093392;23;96684;-66
2022/01/20 00:58:07;;;;;;;6.05;1.50;;;5.40;84.70;;;;;;6118410;23;92440;-66
2022/01/20 01:00:35;;;;;;;9.60;1.60;;;5.40;84.80;;;;;;6095556;23;92325;-66
2022/01/20 01:03:03;;;;;;;9.50;2.05;;;5.40;84.90;;;;;;6093180;23;95490;-66
2022/01/20 01:05:30;;;;;;;11.52;1.33;;;5.40;85.00;;;;;;6095227;23;93686;-66
2022/01/20 01:07:57;;;;;;;11.18;1.48;;;5.40;84.90;;;;;;6093403;23;92385;-65
2022/01/20 01:10:30;;;;;;;7.55;1.27;;;5.40;85.30;;;;;;6094150;23;91714;-66
2022/01/20 01:15:31;;;;;;;9.50;1.35;;;5.60;85.00;;;;;;6118218;23;93919;-66
2022/01/20 01:23:34;;;;;;;14.20;1.95;;;5.80;84.60;;;;;;6095303;23;92977;-66
2022/01/20 01:26:03;;;;;;;6.80;1.48;;;5.80;84.30;;;;;;6093093;23;94060;-66
2022/01/20 01:28:32;;;;;;;7.72;1.73;;;5.90;84.60;;;;;;6095114;23;92355;-66
2022/01/20 01:34:11;;;;;;;7.20;1.60;;;6.00;84.40;;;;;;6062644;23;96699;-66
2022/01/20 01:36:50;;;;;;;7.72;1.40;;;6.10;85.40;;;;;;6063512;23;93927;-65
2022/01/20 01:39:18;;;;;;;7.80;1.60;;;6.10;86.20;;;;;;6081701;23;92361;-66
2022/01/20 01:41:46;;;;;;;5.70;1.83;;;6.00;85.50;;;;;;6093706;23;92464;-66
2022/01/20 01:44:20;;;;;;;11.93;1.40;;;5.90;85.20;;;;;;6091336;23;96411;-66
2022/01/20 01:46:49;;;;;;;9.60;1.40;;;5.80;85.70;;;;;;6093421;23;97715;-66
2022/01/20 01:49:18;;;;;;;12.57;1.60;;;5.80;85.40;;;;;;6093374;23;92330;-66
2022/01/20 01:51:46;;;;;;;8.77;1.83;;;5.70;86.30;;;;;;6118210;23;92463;-66
2022/01/20 01:54:16;;;;;;;10.25;1.42;;;5.70;86.30;;;;;;6093189;23;95400;-66
2022/01/20 01:56:46;;;;;;;8.43;1.30;;;5.60;86.60;;;;;;6095270;23;93052;-66
2022/01/20 01:59:14;;;;;;;9.40;1.45;;;5.50;86.80;;;;;;6118364;23;92522;-66
2022/01/20 02:01:56;;;;;;;11.50;1.70;;;5.50;87.10;;;;;;6093964;23;91684;-66
2022/01/20 02:04:24;;;;;;;5.80;1.17;;;5.40;87.60;;;;;;6117993;23;95448;-66
2022/01/20 02:20:41;;;;;;;7.22;1.20;;;5.40;87.30;;;;;;6093687;23;92422;-66
2022/01/20 02:23:13;;;;;;;7.30;1.20;;;5.40;86.70;;;;;;6093298;23;92405;-66
2022/01/20 02:25:41;;;;;;;12.60;1.05;;;5.50;85.50;;;;;;6068868;23;95595;-66
2022/01/20 02:28:10;;;;;;;4.30;1.00;;;5.50;85.50;;;;;;6093298;23;95432;-65
2022/01/20 02:30:40;;;;;;;5.63;1.38;;;5.40;88.30;;;;;;6095205;23;92495;-65
2022/01/20 02:33:10;;;;;;;1.80;0.75;;;5.20;91.00;;;;;;6092971;23;92722;-66
2022/01/20 02:35:41;;;;;;;3.88;1.20;;;4.90;92.20;;;;;;6116203;23;97473;-66
2022/01/20 02:38:24;;;;;;;2.95;0.90;;;4.70;93.10;;;;;;6093115;23;97788;-66
2022/01/20 02:46:23;;;;;;;4.68;0.68;;;4.50;93.30;;;;;;6117412;23;95354;-66
2022/01/20 02:48:50;;;;;;;5.63;1.38;;;4.50;92.80;;;;;;6093026;23;93897;-66
2022/01/20 02:51:17;;;;;;;6.53;1.95;;;4.40;93.20;;;;;;6092981;23;92414;-66
2022/01/20 02:53:44;;;;;;;2.85;1.63;;;4.40;93.50;;;;;;6118272;23;91745;-67
2022/01/20 02:56:11;;;;;;;9.75;1.85;;;4.30;92.90;;;;;;6093793;23;105629;-67
2022/01/20 02:58:39;;;;;;;14.25;1.50;;;4.30;93.30;;;;;;6092795;23;95513;-67
2022/01/20 03:01:06;;;;;;;8.15;1.38;;;4.20;93.20;;;;;;6116167;23;94900;-66
2022/01/20 03:03:34;;;;;;;11.05;1.70;;;4.20;93.60;;;;;;6093068;23;92538;-66
2022/01/20 03:06:03;;;;;;;8.32;1.65;;;4.20;93.60;;;;;;6068401;23;95538;-66
2022/01/20 03:08:30;;;;;;;6.55;1.52;;;4.20;93.20;;;;;;6092758;23;95197;-67
2022/01/20 03:10:57;;;;;;;6.25;1.55;;;4.20;92.90;;;;;;6117850;23;93173;-67
2022/01/20 03:13:24;;;;;;;8.88;1.67;;;4.10;93.10;;;;;;6094544;23;92459;-67
2022/01/20 03:15:52;;;;;;;8.98;1.60;;;4.10;93.20;;;;;;6092727;23;94091;-72
2022/01/20 03:18:19;;;;;;;7.50;1.67;;;4.10;93.10;;;;;;6095886;23;93867;-71
2022/01/20 03:20:46;;;;;;;10.63;1.63;;;4.10;93.10;;;;;;6096461;23;92868;-71
2022/01/20 03:23:13;;;;;;;7.07;1.65;;;4.10;92.90;;;;;;6095891;23;92554;-72
2022/01/20 03:25:40;;;;;;;13.65;3.00;;;4.00;92.90;;;;;;6119314;23;96651;-72
2022/01/20 03:28:08;;;;;;;13.90;2.92;;;4.10;92.30;;;;;;6095689;23;97912;-71
2022/01/20 03:30:35;;;;;;;13.00;2.20;;;4.10;91.90;;;;;;6098179;23;92447;-71
2022/01/20 03:33:03;;;;;;;8.45;1.75;;;4.10;91.10;;;;;;6096054;23;92503;-71
2022/01/20 03:35:31;;;;;;;7.30;1.90;;;4.10;90.20;;;;;;6095779;23;95394;-66
2022/01/20 03:38:19;;;;;;;3.80;1.48;;;4.10;89.10;;;;;;6086552;23;92607;-67
2022/01/20 03:40:46;;;;;;;11.85;1.98;;;3.90;90.50;;;;;;6096063;23;92546;-66
2022/01/20 03:43:13;;;;;;;7.13;2.17;;;3.90;90.40;;;;;;6096103;23;91721;-66
2022/01/20 03:45:42;;;;;;;9.60;2.30;;;3.80;90.80;;;;;;6120861;23;95974;-66
2022/01/20 03:48:11;;;;;;;10.52;2.13;;;3.80;90.70;;;;;;6095460;23;95242;-66
2022/01/20 03:53:27;;;;;;;16.13;2.53;;;3.80;91.20;;;;;;6095763;23;92441;-66
2022/01/20 03:55:56;;;;;;;11.27;2.70;;;3.90;90.80;;;;;;6095480;23;95439;-66
2022/01/20 03:58:23;;;;;;;12.88;2.45;;;3.90;90.50;;;;;;6120187;23;95056;-67
2022/01/20 04:00:51;;;;;;;9.73;2.03;;;3.90;90.10;;;;;;6120860;23;92339;-66
2022/01/20 04:03:39;;;;;;;12.93;3.25;;;4.00;90.30;;;;;;6095787;23;92821;-66
2022/01/20 04:06:23;;;;;;;13.93;3.20;;;4.00;90.70;;;;;;6116840;23;95451;-66
2022/01/20 04:08:50;;;;;;;12.55;2.33;;;4.00;90.90;;;;;;6095971;23;93970;-66
2022/01/20 04:11:21;;;;;;;14.90;2.40;;;4.10;89.90;;;;;;6095793;23;92874;-66
2022/01/20 04:13:50;;;;;;;12.95;3.45;;;4.10;90.20;;;;;;6097855;23;92606;-66
2022/01/20 04:16:49;;;;;;;7.20;2.40;;;4.10;90.40;;;;;;6093843;23;98009;-66
2022/01/20 04:19:17;;;;;;;6.10;1.93;;;4.00;89.20;;;;;;6095137;23;97230;-66
2022/01/20 04:21:45;;;;;;;9.00;1.90;;;4.10;82.00;;;;;;6120634;23;92453;-65
2022/01/20 04:24:12;;;;;;;13.65;3.00;;;4.20;80.20;;;;;;6120520;23;92505;-66
2022/01/20 04:26:41;;;;;;;11.18;2.33;;;4.20;82.00;;;;;;6095536;23;95742;-66
2022/01/20 04:29:14;;;;;;;4.40;1.42;;;4.10;79.20;;;;;;6119170;23;95355;-66
2022/01/20 04:31:42;;;;;;;6.40;1.52;;;4.10;76.70;;;;;;6094367;23;92405;-66
2022/01/20 04:34:10;;;;;;;13.27;2.40;;;4.10;75.20;;;;;;6094584;23;92040;-66
2022/01/20 04:36:41;;;;;;;6.40;1.45;;;4.10;75.70;;;;;;6093269;23;95862;-66
2022/01/20 04:39:12;;;;;;;7.43;1.50;;;4.10;73.30;;;;;;6093910;23;95252;-66
2022/01/20 04:41:40;;;;;;;11.57;1.95;;;4.10;73.00;;;;;;6092618;23;94795;-66
2022/01/20 04:44:16;;;;;;;11.13;2.45;;;4.10;72.60;;;;;;6093200;23;92558;-69
2022/01/20 04:57:27;;;;;;;11.00;1.73;;;4.20;73.00;;;;;;6118408;23;95517;-69
2022/01/20 04:59:54;;;;;;;6.60;2.03;;;4.30;71.90;;;;;;6094013;23;95268;-70
2022/01/20 05:02:24;;;;;;;7.78;1.60;;;4.40;69.90;;;;;;6093643;23;92409;-70
2022/01/20 05:04:55;;;;;;;12.88;2.45;;;4.30;71.70;;;;;;6093672;23;92424;-70
2022/01/20 05:07:43;;;;;;;12.80;2.05;;;4.40;72.80;;;;;;6072172;23;97976;-70
2022/01/20 05:10:13;;;;;;;6.65;1.98;;;4.40;74.70;;;;;;6093361;23;97665;-70
2022/01/20 05:15:20;;;;;;;13.88;2.72;;;4.20;75.40;;;;;;6093891;23;92495;-71
2022/01/20 05:17:48;;;;;;;13.02;2.72;;;4.20;77.40;;;;;;6093825;23;95515;-71
2022/01/20 05:20:15;;;;;;;7.93;1.77;;;4.20;75.80;;;;;;6095020;23;98782;-70
2022/01/20 05:22:44;;;;;;;7.20;2.20;;;4.20;76.40;;;;;;6118282;23;92930;-70
2022/01/20 05:25:17;;;;;;;12.32;2.70;;;4.20;76.50;;;;;;6093956;23;91726;-70
2022/01/20 05:27:44;;;;;;;10.57;2.35;;;4.10;76.50;;;;;;6093045;23;95019;-70
2022/01/20 05:30:12;;;;;;;8.68;2.30;;;4.10;76.10;;;;;;6093507;23;95510;-70
2022/01/20 05:32:49;;;;;;;7.45;2.03;;;4.10;76.80;;;;;;6116846;23;94771;-70
2022/01/20 05:35:16;;;;;;;12.55;1.75;;;4.10;76.50;;;;;;6093623;23;92492;-70
2022/01/20 05:37:43;;;;;;;5.75;2.05;;;4.10;76.40;;;;;;6093028;23;95465;-70
2022/01/20 05:40:10;;;;;;;8.73;1.92;;;4.10;75.00;;;;;;6092738;23;95700;-70
2022/01/20 05:42:39;;;;;;;6.13;1.92;;;4.20;75.10;;;;;;6093464;23;92507;-70
2022/01/20 05:45:10;;;;;;;12.50;1.77;;;4.20;75.50;;;;;;6093651;23;92450;-70
2022/01/20 05:47:43;;;;;;;12.48;2.30;;;4.20;74.60;;;;;;6094968;23;92901;-70
2022/01/20 05:50:12;;;;;;;12.35;1.92;;;4.20;75.70;;;;;;6095744;23;92614;-69
2022/01/20 05:52:41;;;;;;;9.75;1.77;;;4.20;75.70;;;;;;6093637;23;92688;-69
2022/01/20 05:55:17;;;;;;;8.85;2.10;;;4.20;75.20;;;;;;6093891;23;92462;-70
2022/01/20 05:57:46;;;;;;;10.80;2.17;;;4.20;76.20;;;;;;6091815;23;97829;-70
2022/01/20 06:00:23;;;;;;;8.20;2.10;;;4.20;73.80;;;;;;6093538;23;97975;-66
2022/01/20 06:05:43;;;;;;;9.68;3.15;;;4.20;74.80;;;;;;6118337;23;92422;-65
2022/01/20 06:08:13;;;;;;;6.78;1.40;;;4.10;74.60;;;;;;6095094;23;94178;-65
2022/01/20 06:10:40;;;;;;;6.95;1.10;;;4.00;74.90;;;;;;6093432;23;92724;-65
2022/01/20 06:13:13;;;;;;;9.15;2.55;;;3.90;75.30;;;;;;6093517;23;92454;-65
2022/01/20 06:15:40;;;;;;;9.00;2.15;;;3.90;74.80;;;;;;6095233;23;91660;-69
2022/01/20 06:18:09;;;;;;;6.78;1.20;;;3.80;75.80;;;;;;6093191;23;94227;-70
2022/01/20 06:20:41;;;;;;;6.13;1.73;;;3.80;75.90;;;;;;6117992;23;95681;-69
2022/01/20 06:23:09;;;;;;;16.70;2.78;;;3.80;76.20;;;;;;6092386;23;95282;-70
2022/01/20 06:25:37;;;;;;;11.80;2.45;;;3.70;76.30;;;;;;6093114;23;92514;-69
2022/01/20 06:28:04;;;;;;;7.93;1.83;;;3.70;76.10;;;;;;6093288;23;95832;-70
2022/01/20 06:30:32;;;;;;;12.07;2.33;;;3.70;77.80;;;;;;6092597;23;95563;-69
2022/01/20 06:32:59;;;;;;;10.20;2.00;;;3.70;77.60;;;;;;6093457;23;92419;-69
2022/01/20 06:35:34;;;;;;;5.30;2.00;;;3.70;77.50;;;;;;6092826;23;92606;-69
2022/01/20 06:38:01;;;;;;;10.80;2.05;;;3.70;77.00;;;;;;6117692;23;94566;-69
2022/01/20 06:40:30;;;;;;;6.63;1.80;;;3.80;76.20;;;;;;6093597;23;95643;-69
2022/01/20 06:42:57;;;;;;;14.18;1.90;;;3.80;75.80;;;;;;6092915;23;92566;-69
2022/01/20 06:45:25;;;;;;;9.50;2.00;;;4.00;75.00;;;;;;6093073;23;92519;-69
2022/01/20 06:48:15;;;;;;;10.93;2.55;;;3.90;75.00;;;;;;6116429;23;97597;-69
2022/01/20 06:51:05;;;;;;;4.22;1.40;;;3.90;75.10;;;;;;6082141;23;95012;-70
2022/01/20 06:53:32;;;;;;;4.45;1.60;;;4.00;75.00;;;;;;6093007;23;92470;-70
2022/01/20 06:55:59;;;;;;;12.43;2.38;;;4.10;75.70;;;;;;6092871;23;92500;-71
2022/01/20 06:58:26;;;;;;;15.13;2.10;;;4.10;77.40;;;;;;6092989;23;95726;-71
2022/01/20 07:00:53;;;;;;;8.88;2.15;;;4.00;77.40;;;;;;6092807;23;95465;-70
2022/01/20 07:03:24;;;;;;;11.52;2.25;;;4.00;77.70;;;;;;6118264;23;92473;-70
2022/01/20 07:05:51;;;;;;;8.55;1.92;;;4.00;77.50;;;;;;6093379;23;92292;-69
2022/01/20 07:08:21;;;;;;;9.60;2.30;;;4.00;76.60;;;;;;6092640;23;95550;-70
2022/01/20 07:10:48;;;;;;;14.10;2.65;;;4.10;76.30;;;;;;6092862;23;94984;-69
2022/01/20 07:13:15;;;;;;;14.48;2.75;;;4.10;78.20;;;;;;6091959;23;94908;-69
2022/01/20 07:15:42;;;;;;;9.55;2.22;;;4.00;79.00;;;;;;6092709;23;92535;-70
2022/01/20 07:18:09;;;;;;;9.90;1.88;;;3.90;79.00;;;;;;6092879;23;95737;-70
2022/01/20 07:20:36;;;;;;;11.68;2.25;;;3.90;79.10;;;;;;6092747;23;93980;-69
2022/01/20 07:23:09;;;;;;;10.88;3.20;;;3.80;79.20;;;;;;6117931;23;92387;-69
2022/01/20 07:25:50;;;;;;;6.45;1.70;;;3.80;79.50;;;;;;6117363;23;92442;-71
2022/01/20 07:28:18;;;;;;;10.20;2.70;;;3.80;78.10;;;;;;6092554;23;95882;-70
2022/01/20 07:30:46;;;;;;;5.10;1.92;;;3.80;78.30;;;;;;6092747;23;95258;-70
2022/01/20 07:33:13;;;;;;;6.30;1.52;;;3.80;77.60;;;;;;6117671;23;92407;-71
2022/01/20 07:35:42;;;;;;;6.43;1.80;;;3.90;76.60;;;;;;6092352;23;92510;-70
2022/01/20 07:38:09;;;;;;;10.98;1.55;;;3.90;77.00;;;;;;6115729;23;97770;-70
2022/01/20 07:40:37;;;;;;;14.93;2.20;;;3.90;77.90;;;;;;6092386;23;97698;-70
2022/01/20 07:43:04;;;;;;;8.35;1.88;;;3.90;77.30;;;;;;6117473;23;92573;-69
2022/01/20 07:45:46;;;;;;;6.88;2.08;;;3.90;78.10;;;;;;6092741;23;92412;-70
2022/01/20 07:48:19;;;;;;;14.45;2.55;;;3.90;77.90;;;;;;6094315;23;93007;-70
2022/01/20 07:50:51;;;;;;;6.32;1.48;;;3.90;78.50;;;;;;6117184;23;94889;-70
2022/01/20 07:53:23;;;;;;;12.00;1.98;;;4.00;78.20;;;;;;6092678;23;92394;-70
2022/01/20 07:55:52;;;;;;;5.47;1.73;;;4.10;78.70;;;;;;6117439;23;91720;-70
2022/01/20 07:58:20;;;;;;;8.98;1.65;;;4.10;78.80;;;;;;6092135;23;94580;-70
2022/01/20 08:00:47;;;;;;;12.10;2.50;;;4.00;79.20;;;;;;6116615;23;93996;-70
2022/01/20 08:03:14;;;;;;;10.55;2.35;;;4.00;79.70;;;;;;6066870;23;94859;-71
2022/01/20 08:05:52;;;;;;;15.25;2.58;;;4.00;80.20;;;;;;6071293;23;92485;-71
2022/01/20 08:08:24;;;;;;;13.35;2.28;;;4.00;80.80;;;;;;6093503;23;95477;-70
2022/01/20 08:11:11;;;;;;;11.82;2.25;;;4.00;80.20;;;;;;6095305;23;92549;-70
2022/01/20 08:13:38;;;;;;;9.18;2.30;;;4.10;78.40;;;;;;6118808;23;92532;-70
2022/01/20 08:16:05;;;;;;;6.88;1.88;;;4.10;78.80;;;;;;6093633;23;92590;-70
2022/01/20 08:18:32;;;;;;;7.75;1.33;;;4.20;80.00;;;;;;6093711;23;95436;-70
2022/01/20 08:20:59;;;;;;;5.07;1.38;;;4.20;78.00;;;;;;6118974;23;95649;-70
2022/01/20 08:23:26;;;;;;;6.28;1.52;;;4.20;76.10;;;;;;6094094;23;92453;-71
2022/01/20 08:25:53;;;;;;;3.92;0.82;;;4.20;76.20;;;;;;6093845;23;92492;-70
2022/01/20 08:28:22;;;;;;;2.58;0.88;;;4.10;76.00;;;;;;6116782;23;97871;-70
2022/01/20 08:30:50;;;;;;;7.38;1.25;;;4.10;76.20;;;;;;6095272;23;95182;-70
2022/01/20 08:33:17;;;;;;;3.38;1.70;;;4.20;75.10;;;;;;6093903;23;92537;-71
2022/01/20 08:35:48;;;;;;;4.88;1.20;;;4.10;74.60;;;;;;6095546;23;92296;-70
2022/01/20 08:38:20;;;;;;;10.07;1.80;;;4.10;74.40;;;;;;6093966;23;95335;-70
2022/01/20 08:40:48;;;;;;;3.58;1.42;;;4.10;73.80;;;;;;6093270;23;94383;-70
2022/01/20 08:43:16;;;;;;;7.68;1.65;;;4.10;74.30;;;;;;6093970;23;92451;-70
2022/01/20 08:45:44;;;;;;;6.00;1.60;;;4.10;74.40;;;;;;6093955;23;91848;-70
2022/01/20 08:48:13;;;;;;;8.07;1.42;;;4.20;74.30;;;;;;6093336;23;95407;-71
2022/01/20 08:51:13;;;;;;;8.52;1.80;;;4.30;74.60;;;;;;6093414;23;94742;-71
2022/01/20 08:54:03;;;;;;;11.82;1.70;;;4.40;74.20;;;;;;6092258;23;94896;-70
2022/01/20 08:56:34;;;;;;;18.25;3.40;;;4.40;74.70;;;;;;6118432;23;92486;-70
2022/01/20 08:59:03;;;;;;;11.10;2.08;;;4.40;74.40;;;;;;6093041;23;94297;-70
2022/01/20 09:01:30;;;;;;;5.55;1.55;;;4.40;75.10;;;;;;6093457;23;95256;-70
2022/01/20 09:03:57;;;;;;;10.25;2.10;;;4.40;75.10;;;;;;6095291;23;92381;-70
2022/01/20 09:06:24;;;;;;;11.80;2.00;;;4.50;75.40;;;;;;6093979;23;92950;-70
2022/01/20 09:09:00;;;;;;;9.18;2.28;;;4.50;75.00;;;;;;6093236;23;95242;-70
2022/01/20 09:11:36;;;;;;;10.07;2.05;;;4.50;73.60;;;;;;6093773;23;94129;-70
2022/01/20 09:16:53;;;;;;;10.02;1.30;;;4.70;71.30;;;;;;6093497;23;92483;-69
2022/01/20 09:19:23;;;;;;;10.27;2.15;;;4.70;71.50;;;;;;6091750;23;98212;-71
2022/01/20 09:21:59;;;;;;;6.28;1.58;;;4.70;71.80;;;;;;6116255;23;95110;-70
2022/01/20 09:24:28;;;;;;;7.70;2.28;;;4.80;72.70;;;;;;6093537;23;92450;-70
2022/01/20 09:26:57;;;;;;;5.05;1.52;;;4.80;72.10;;;;;;6093180;23;92547;-70
2022/01/20 09:29:27;;;;;;;7.15;1.30;;;4.80;71.70;;;;;;6093466;23;95637;-70
2022/01/20 09:31:54;;;;;;;4.28;1.55;;;4.80;72.20;;;;;;6093071;23;95227;-70
2022/01/20 09:34:28;;;;;;;3.88;1.20;;;4.80;72.20;;;;;;6094166;23;93624;-70
2022/01/20 09:36:56;;;;;;;6.13;1.05;;;4.70;72.90;;;;;;6118145;23;91727;-71
2022/01/20 09:39:23;;;;;;;7.05;2.08;;;4.80;71.90;;;;;;6094865;23;94946;-71
2022/01/20 09:42:09;;;;;;;8.43;2.05;;;4.80;72.60;;;;;;6093040;23;92879;-70
2022/01/20 09:44:44;;;;;;;6.25;1.55;;;4.80;73.10;;;;;;6092022;23;94907;-70
2022/01/20 09:47:15;;;;;;;13.55;1.92;;;4.90;73.50;;;;;;6093485;23;92480;-70
2022/01/20 09:50:19;;;;;;;8.02;1.63;;;4.90;74.00;;;;;;6118143;23;95548;-70
2022/01/20 09:53:16;;;;;;;6.85;1.52;;;4.90;73.70;;;;;;6087554;23;93577;-71
2022/01/20 09:56:00;;;;;;;;;;;5.00;74.30;;;;;;6093948;23;92894;-70
2022/01/20 09:58:27;;;;;;;10.45;2.13;;;4.90;75.80;;;;;;6094434;23;92618;-70
2022/01/20 10:00:58;;;;;;;8.82;2.08;;;4.90;75.80;;;;;;6093226;23;95709;-70
2022/01/20 10:03:29;;;;;;;5.43;1.55;;;4.90;75.40;;;;;;6093657;23;95422;-71
2022/01/20 10:05:56;;;;;;;8.70;2.25;;;4.90;75.10;;;;;;6093553;23;92597;-70
2022/01/20 10:08:30;;;;;;;5.00;1.60;;;4.90;75.10;;;;;;6093198;23;92435;-70
2022/01/20 10:11:28;;;;;;;9.63;2.00;;;5.00;75.50;;;;;;6013637;23;95241;-69
2022/01/20 10:14:13;;;;;;;8.77;1.50;;;5.10;76.40;;;;;;6117409;23;97655;-70
2022/01/20 10:17:14;;;;;;;10.52;2.25;;;5.20;78.30;;;;;;6094516;23;92480;-71
2022/01/20 10:19:41;;;;;;;13.48;1.83;;;5.40;77.50;;;;;;6093666;23;92952;-71
2022/01/20 10:22:24;;;;;;;2.97;1.25;;;5.60;75.80;;;;;;6092485;23;94115;-70
2022/01/20 10:25:19;;;;;;;10.75;2.03;;;5.60;72.30;;;;;;6091306;23;93613;-70
2022/01/20 10:27:58;;;;;;;9.48;1.95;;;5.60;69.70;;;;;;6092969;23;92528;-70
2022/01/20 10:30:27;;;;;;;8.57;1.90;;;5.60;68.40;;;;;;6118836;23;91751;-70
2022/01/20 10:32:59;;;;;;;5.43;1.40;;;5.60;69.60;;;;;;6093649;23;95590;-70
2022/01/20 10:35:33;;;;;;;7.97;2.22;;;5.60;69.40;;;;;;6093573;23;95049;-70
2022/01/20 10:38:13;;;;;;;7.40;2.10;;;5.60;70.20;;;;;;6091617;23;94912;-70
2022/01/20 10:40:59;;;;;;;9.95;1.73;;;5.60;69.20;;;;;;6093247;23;92357;-71
2022/01/20 10:43:33;;;;;;;11.82;2.08;;;5.70;70.40;;;;;;6093594;23;95749;-71
2022/01/20 10:46:18;;;;;;;9.45;2.10;;;5.80;69.60;;;;;;6094694;23;92534;-70
2022/01/20 10:48:58;;;;;;;11.82;2.30;;;6.00;68.90;;;;;;6093032;23;92489;-71
2022/01/20 10:51:28;;;;;;;5.30;1.92;;;6.10;71.00;;;;;;6092966;23;92410;-70
2022/01/20 10:54:03;;;;;;;11.23;2.30;;;5.90;74.20;;;;;;6093464;23;95469;-70
2022/01/20 10:56:52;;;;;;;8.65;2.38;;;5.60;74.20;;;;;;6093569;23;95214;-70
2022/01/20 10:59:21;;;;;;;12.30;1.30;;;5.40;76.50;;;;;;6093079;23;92487;-70
2022/01/20 11:02:08;;;;;;;3.97;1.33;;;5.10;75.00;;;;;;6093048;23;92498;-70
2022/01/20 11:04:38;;;;;;;5.70;1.88;;;4.90;77.00;;;;;;6093146;23;95352;-70
2022/01/20 11:07:08;;;;;;;7.07;1.23;;;4.80;77.60;;;;;;6092646;23;97547;-70
2022/01/20 11:09:45;;;;;;;8.88;1.85;;;4.90;77.30;;;;;;6094891;23;92433;-71
2022/01/20 11:12:36;;;;;;;6.22;1.70;;;5.10;75.90;;;;;;6065909;23;92534;-70
2022/01/20 11:15:18;;;;;;;6.40;2.20;;;5.20;75.20;;;;;;6092628;23;95587;-71
2022/01/20 11:17:54;;;;;;;8.77;1.88;;;5.20;75.90;;;;;;6092367;23;95171;-71
2022/01/20 11:20:27;;;;;;;10.00;1.80;;;5.00;76.30;;;;;;6092438;23;92429;-70
2022/01/20 11:23:01;;;;;;;10.98;1.88;;;5.00;78.30;;;;;;6093483;23;91667;-70
2022/01/20 11:25:36;;;;;;;11.07;2.28;;;4.90;78.50;;;;;;6093567;23;95841;-70
2022/01/20 11:28:21;;;;;;;7.57;1.83;;;4.80;78.70;;;;;;6092112;23;95070;-70
2022/01/20 11:31:12;;;;;;;10.65;3.17;;;4.70;79.00;;;;;;6116132;23;94784;-70
2022/01/20 11:33:59;;;;;;;7.40;2.13;;;4.80;78.10;;;;;;6093832;23;92410;-70
2022/01/20 11:36:31;;;;;;;7.13;1.77;;;4.90;76.50;;;;;;6092256;23;95734;-70
2022/01/20 11:39:24;;;;;;;8.27;2.00;;;5.00;74.20;;;;;;6093588;23;93905;-70
2022/01/20 11:41:52;;;;;;;8.68;2.00;;;5.20;74.10;;;;;;6095985;23;92347;-71
2022/01/20 11:44:24;;;;;;;9.68;2.10;;;5.20;74.20;;;;;;6095228;23;92346;-70
2022/01/20 11:46:53;;;;;;;6.47;1.85;;;5.40;74.00;;;;;;6118969;23;94037;-70
2022/01/20 11:49:22;;;;;;;10.85;2.58;;;5.40;71.80;;;;;;6093820;23;93868;-70
2022/01/20 11:51:50;;;;;;;9.93;2.75;;;5.50;72.60;;;;;;6096028;23;92475;-70
2022/01/20 11:54:41;;;;;;;7.55;2.22;;;5.70;70.50;;;;;;6093949;23;92391;-70
2022/01/20 11:57:30;;;;;;;4.72;1.20;;;5.70;69.50;;;;;;6092117;23;103828;-70
2022/01/20 12:00:01;;;;;;;5.97;1.80;;;5.80;69.30;;;;;;6094073;23;95164;-70
2022/01/20 12:02:39;;;;;;;9.82;1.92;;;5.90;67.90;;;;;;6094226;23;92485;-71
2022/01/20 12:05:30;;;;;;;8.88;1.92;;;6.00;67.10;;;;;;6093405;23;93017;-71
2022/01/20 12:08:19;;;;;;;7.10;1.73;;;6.10;67.80;;;;;;6094875;23;93101;-70
2022/01/20 12:11:02;;;;;;;11.20;2.45;;;6.10;68.80;;;;;;6092844;23;93890;-70
2022/01/20 12:13:30;;;;;;;14.07;2.20;;;6.20;68.70;;;;;;6095376;23;92369;-70
2022/01/20 12:16:00;;;;;;;5.45;1.70;;;6.10;64.30;;;;;;6095899;23;91691;-71
2022/01/20 12:18:29;;;;;;;8.07;1.70;;;6.20;65.20;;;;;;6118255;23;96266;-70
2022/01/20 12:21:00;;;;;;;5.95;2.42;;;6.20;66.60;;;;;;6118450;23;92763;-71
2022/01/20 12:23:27;;;;;;;8.02;1.60;;;5.70;74.80;;;;;;6093952;23;94791;-71
2022/01/20 12:26:04;;;;;;;6.03;1.70;;;5.40;80.40;;;;;;6093680;23;92401;-71
2022/01/20 12:28:31;;;;;;;7.30;2.25;;;5.20;81.40;;;;;;6094816;23;92966;-72
2022/01/20 12:31:04;;;;;;;8.63;2.58;;;5.10;82.30;;;;;;6118382;23;92945;-72
2022/01/20 12:33:33;;;;;;;8.23;1.98;;;5.10;83.30;;;;;;6095316;23;92363;-71
2022/01/20 12:36:03;;;;;;;4.82;1.42;;;4.90;84.70;;;;;;6095240;23;92428;-71
2022/01/20 12:38:41;;;;;;;8.18;1.42;;;4.90;84.50;;;;;;6094907;23;93135;-72
2022/01/20 12:41:08;;;;;;;8.45;1.48;;;4.90;79.60;;;;;;6094186;23;92687;-72
2022/01/20 12:43:36;;;;;;;9.77;1.80;;;5.00;80.00;;;;;;6095118;23;92929;-72
2022/01/20 12:46:04;;;;;;;7.93;2.08;;;5.00;78.30;;;;;;6094726;23;92422;-71
2022/01/20 12:48:31;;;;;;;5.25;1.25;;;5.10;78.90;;;;;;6116409;23;96541;-72
2022/01/20 12:51:09;;;;;;;5.55;1.48;;;5.10;77.20;;;;;;6094759;23;95107;-72
2022/01/20 12:58:51;;;;;;;3.40;1.02;;;5.50;71.00;;;;;;5972729;23;88061;-71
2022/01/20 13:01:19;;;;;;;5.97;1.70;;;5.50;72.40;;;;;;6016401;23;87459;-70
2022/01/20 13:03:47;;;;;;;8.35;1.95;;;5.60;72.80;;;;;;5987899;23;89687;-70
2022/01/20 13:06:25;;;;;;;8.13;1.58;;;5.70;70.00;;;;;;6017844;23;87748;-70
2022/01/20 13:09:06;;;;;;;4.70;2.13;;;5.70;70.40;;;;;;5992408;23;89781;-70
2022/01/20 13:11:42;;;;;;;7.20;2.60;;;5.80;67.90;;;;;;6017841;23;87411;-70
2022/01/20 13:14:11;;;;;;;7.25;1.48;;;5.80;66.30;;;;;;6017725;23;88175;-70
2022/01/20 13:16:51;;;;;;;11.23;1.60;;;5.80;65.80;;;;;;6017524;23;87603;-70
2022/01/20 13:19:19;;;;;;;13.35;3.30;;;5.90;66.50;;;;;;5992258;23;88226;-70
2022/01/20 13:21:52;;;;;;;7.22;2.20;;;5.80;68.60;;;;;;5991921;23;87594;-70
2022/01/20 13:24:31;;;;;;;6.50;1.63;;;5.90;67.60;;;;;;5992302;23;89335;-70
2022/01/20 13:26:59;;;;;;;11.80;2.55;;;6.10;66.10;;;;;;5991748;23;88970;-70
2022/01/20 13:29:42;;;;;;;11.18;2.10;;;6.10;67.50;;;;;;6016906;23;103922;-70
2022/01/20 13:32:09;;;;;;;9.20;2.30;;;6.20;66.50;;;;;;6017714;23;87545;-71
2022/01/20 13:34:37;;;;;;;9.32;2.17;;;6.30;65.80;;;;;;6017168;23;88109;-70
2022/01/20 13:37:11;;;;;;;6.50;1.98;;;6.40;65.30;;;;;;6017638;23;87705;-70
2022/01/20 13:39:41;;;;;;;9.60;1.80;;;6.40;65.80;;;;;;6017542;23;87597;-70
2022/01/20 13:42:20;;;;;;;8.15;2.20;;;6.40;67.30;;;;;;6017873;23;87857;-70
2022/01/20 13:45:14;;;;;;;7.60;2.15;;;6.30;67.70;;;;;;6017541;23;88189;-70
2022/01/20 13:47:56;;;;;;;11.07;2.03;;;6.30;69.50;;;;;;6040093;23;89076;-70
2022/01/20 13:50:23;;;;;;;9.52;2.20;;;6.20;69.60;;;;;;6017774;23;87462;-70
2022/01/20 13:52:51;;;;;;;8.00;1.65;;;6.10;69.40;;;;;;5992243;23;87717;-70
2022/01/20 13:55:24;;;;;;;8.23;1.98;;;5.90;70.50;;;;;;6039710;23;91069;-71
2022/01/20 13:57:51;;;;;;;5.55;1.38;;;5.90;71.50;;;;;;6017447;23;87897;-70
2022/01/20 14:00:21;;;;;;;12.02;2.55;;;5.90;70.70;;;;;;6017565;23;87453;-70
2022/01/20 14:02:49;;;;;;;6.07;1.65;;;5.80;71.50;;;;;;6017333;23;87849;-70
2022/01/20 14:05:27;;;;;;;9.82;1.63;;;5.80;70.90;;;;;;6012583;23;88353;-70
2022/01/20 14:07:55;;;;;;;4.22;1.67;;;5.80;70.50;;;;;;6009692;23;88971;-70
2022/01/20 14:10:22;;;;;;;5.07;1.33;;;5.70;71.20;;;;;;5984713;23;100183;-71
2022/01/20 14:12:49;;;;;;;6.82;1.35;;;5.70;71.00;;;;;;6010804;23;87596;-71
2022/01/20 14:15:17;;;;;;;3.53;1.27;;;5.60;70.50;;;;;;5985203;23;89282;-70
2022/01/20 14:17:50;;;;;;;8.10;1.77;;;5.60;70.90;;;;;;6010570;23;88859;-71
2022/01/20 14:20:19;;;;;;;4.28;1.80;;;5.70;71.30;;;;;;5996142;23;87383;-71
2022/01/20 14:22:46;;;;;;;4.10;1.10;;;5.70;71.80;;;;;;5982300;23;87579;-71
2022/01/20 14:25:13;;;;;;;6.38;1.67;;;5.70;71.90;;;;;;5956709;23;89298;-70
2022/01/20 14:27:40;;;;;;;6.63;1.83;;;5.70;70.60;;;;;;5982388;23;87876;-71
2022/01/20 14:30:11;;;;;;;5.22;1.67;;;5.70;70.90;;;;;;5981993;23;104516;-71
2022/01/20 14:32:39;;;;;;;6.40;1.52;;;5.60;71.00;;;;;;5956760;23;87875;-71
2022/01/20 14:35:07;;;;;;;8.18;2.05;;;5.60;71.00;;;;;;5982601;23;88080;-71
2022/01/20 14:37:37;;;;;;;7.97;1.67;;;5.60;71.10;;;;;;5982304;23;87749;-70
2022/01/20 14:40:05;;;;;;;11.80;2.40;;;5.60;70.30;;;;;;5982666;23;87461;-70
2022/01/20 14:42:32;;;;;;;6.57;2.10;;;5.50;71.60;;;;;;5982180;23;87527;-70
2022/01/20 14:44:59;;;;;;;9.63;2.40;;;5.40;79.10;;;;;;5982657;23;88055;-70